Russell, Massachusetts
Current Conditions -  °F | °C
As of 10:53 PM on Saturday 25 Oct 2014 (Local Time) from KBAF Reporting Station
Overcast Overcast  
Wind Chill: 54°   Ceiling: 11000
Heat Index: 54°   Visibility: 10mi
Dew Point: 45°   Wind: 7mph
Humidity: 72%   Direction: 220°SW
Pressure: 29.53"   Gusts: NA
Location:  42.19°N, 72.86°W
Report Text: KBAF 260253Z AUTO 22006KT 10SM OVC110 12/07 A2953 RMK AO2 RAE01 SLP000 P0000 60000 T01220072 58013
Loading
Personal Weather Stations






























Interactive Weather Map
Tropical Storm Tracking
New forecast layout! Learn more

10-Day Weather Forecast

Advertisements
Track Severe Weather on mobile